createdAt,value
2022-09-26T00:01:21.966Z,26.23
2022-09-26T00:03:25.605Z,25.73
2022-09-26T00:05:30.846Z,25.60
2022-09-26T00:07:34.532Z,25.79
2022-09-26T00:09:38.094Z,25.61
2022-09-26T00:11:42.238Z,25.60
2022-09-26T00:13:46.261Z,25.79
2022-09-26T00:15:50.054Z,25.84
2022-09-26T00:17:54.264Z,25.93
2022-09-26T00:19:57.997Z,25.98
2022-09-26T00:22:04.515Z,25.78
2022-09-26T00:24:08.262Z,25.95
2022-09-26T00:26:12.578Z,26.52
2022-09-26T00:28:16.739Z,26.34
2022-09-26T00:30:23.268Z,26.40
2022-09-26T00:32:26.933Z,26.34
2022-09-26T00:34:31.523Z,26.42
2022-09-26T00:36:38.424Z,26.69
2022-09-26T00:38:42.458Z,26.81
2022-09-26T00:40:46.503Z,26.82
2022-09-26T00:42:50.365Z,27.08
2022-09-26T00:44:57.868Z,27.15
2022-09-26T00:47:04.485Z,27.39
2022-09-26T00:49:24.279Z,27.42
2022-09-26T00:51:31.062Z,27.55
2022-09-26T00:53:37.002Z,27.90
2022-09-26T00:55:42.995Z,27.62
2022-09-26T00:57:50.677Z,27.96
2022-09-26T00:59:58.844Z,27.68
2022-09-26T01:02:03.277Z,27.80
2022-09-26T01:04:08.120Z,27.96
2022-09-26T01:06:12.566Z,27.92
2022-09-26T01:08:18.982Z,27.86
2022-09-26T01:10:22.955Z,28.21
2022-09-26T01:12:26.524Z,28.35
2022-09-26T01:14:30.572Z,28.17
2022-09-26T01:16:35.345Z,28.09
2022-09-26T01:18:39.304Z,28.29
2022-09-26T01:20:53.311Z,28.24
2022-09-26T01:23:18.261Z,28.29
2022-09-26T01:25:24.991Z,28.37
2022-09-26T01:27:40.531Z,28.40
2022-09-26T01:29:58.413Z,28.39
2022-09-26T01:32:31.624Z,28.78
2022-09-26T01:34:52.780Z,28.50
2022-09-26T01:37:07.476Z,28.49
2022-09-26T01:39:14.514Z,28.81
2022-09-26T01:41:19.659Z,29.03
2022-09-26T01:43:41.311Z,28.92
2022-09-26T01:45:46.073Z,29.33
2022-09-26T01:47:59.103Z,29.58
2022-09-26T01:50:03.479Z,29.52
2022-09-26T01:52:38.213Z,29.51
2022-09-26T01:54:50.488Z,29.43
2022-09-26T01:56:56.805Z,29.59
2022-09-26T01:59:03.695Z,29.87
2022-09-26T02:01:11.921Z,29.88
2022-09-26T02:03:18.683Z,30.04
2022-09-26T02:05:29.241Z,30.48
2022-09-26T02:07:40.962Z,30.68
2022-09-26T02:09:53.452Z,30.62
2022-09-26T02:12:01.324Z,30.63
2022-09-26T02:14:07.405Z,30.80
2022-09-26T02:16:17.898Z,30.63
2022-09-26T02:18:34.948Z,30.80
2022-09-26T02:20:43.190Z,30.77
2022-09-26T02:22:48.720Z,30.98
2022-09-26T02:24:53.029Z,31.29
2022-09-26T02:27:00.380Z,31.32
2022-09-26T02:29:07.764Z,31.30
2022-09-26T02:31:13.280Z,31.50
2022-09-26T02:33:17.857Z,31.64
2022-09-26T02:35:40.802Z,31.72
2022-09-26T02:37:45.159Z,31.96
2022-09-26T02:39:50.011Z,31.97
2022-09-26T02:42:08.807Z,32.01
2022-09-26T02:44:31.130Z,32.91
2022-09-26T02:46:59.316Z,32.97
2022-09-26T02:49:08.853Z,33.03
2022-09-26T02:51:27.719Z,33.01
2022-09-26T02:53:54.906Z,33.17
2022-09-26T02:56:05.689Z,33.30
2022-09-26T02:58:27.673Z,33.20
2022-09-26T03:00:42.526Z,33.38
2022-09-26T03:02:55.790Z,33.43
2022-09-26T03:05:04.910Z,33.76
2022-09-26T03:07:11.892Z,34.06
2022-09-26T03:09:17.300Z,33.70
2022-09-26T03:11:23.169Z,33.85
2022-09-26T03:13:28.781Z,33.91
2022-09-26T03:15:34.465Z,34.43
2022-09-26T03:17:39.657Z,34.46
2022-09-26T03:19:47.820Z,34.55
2022-09-26T03:21:51.540Z,34.59
2022-09-26T03:23:57.389Z,35.02
2022-09-26T03:26:11.205Z,35.25
2022-09-26T03:28:23.975Z,35.70
2022-09-26T03:30:27.446Z,36.10
2022-09-26T03:32:51.333Z,36.78
2022-09-26T03:34:55.221Z,37.19
2022-09-26T03:36:59.312Z,36.98
2022-09-26T03:39:02.769Z,38.21
2022-09-26T03:41:26.873Z,37.20
2022-09-26T03:43:39.069Z,37.12
2022-09-26T03:45:44.019Z,37.91
2022-09-26T03:47:58.555Z,37.97
2022-09-26T03:50:02.605Z,38.82
2022-09-26T03:52:06.036Z,41.33
2022-09-26T03:54:10.006Z,40.92
2022-09-26T03:56:15.946Z,40.74
2022-09-26T03:58:19.400Z,41.82
2022-09-26T04:00:22.851Z,42.59
2022-09-26T04:02:26.945Z,42.23
2022-09-26T04:04:46.032Z,43.57
2022-09-26T04:06:52.388Z,42.96
2022-09-26T04:08:56.251Z,43.74
2022-09-26T04:11:06.730Z,46.95
2022-09-26T04:13:10.282Z,46.65
2022-09-26T04:15:14.416Z,46.60
2022-09-26T04:17:21.493Z,46.90
2022-09-26T04:19:25.322Z,48.41
2022-09-26T04:21:29.768Z,49.54
2022-09-26T04:23:37.063Z,49.48
2022-09-26T04:25:40.918Z,51.73
2022-09-26T04:27:46.675Z,52.29
2022-09-26T04:29:51.570Z,50.97
2022-09-26T04:32:13.569Z,53.88
2022-09-26T04:34:48.952Z,50.21
2022-09-26T04:36:53.824Z,52.01
2022-09-26T04:39:00.503Z,50.86
2022-09-26T04:41:10.275Z,51.53
2022-09-26T04:43:15.640Z,49.27
2022-09-26T04:45:22.693Z,53.17
2022-09-26T04:47:26.085Z,53.89
2022-09-26T04:49:48.329Z,52.90
2022-09-26T04:51:53.151Z,50.61
2022-09-26T04:53:57.013Z,53.33
2022-09-26T04:56:07.188Z,53.82
2022-09-26T04:58:11.153Z,53.25
2022-09-26T05:00:15.664Z,50.28
2022-09-26T05:02:21.171Z,50.05
2022-09-26T05:04:27.681Z,52.48
2022-09-26T05:06:32.295Z,50.45
2022-09-26T05:08:38.869Z,51.80
2022-09-26T05:10:43.415Z,51.97
2022-09-26T05:12:46.883Z,50.56
2022-09-26T05:14:52.100Z,50.63
2022-09-26T05:16:55.678Z,53.40
2022-09-26T05:19:02.707Z,52.71
2022-09-26T05:21:08.499Z,53.67
2022-09-26T05:23:12.206Z,56.70
2022-09-26T05:25:34.174Z,56.36
2022-09-26T05:27:37.943Z,57.37
2022-09-26T05:29:41.438Z,60.73
2022-09-26T05:31:45.906Z,62.47
2022-09-26T05:33:52.487Z,59.73
2022-09-26T05:35:56.068Z,62.93
2022-09-26T05:38:00.550Z,62.63
2022-09-26T05:40:23.762Z,62.19
2022-09-26T05:42:29.060Z,65.47
2022-09-26T05:44:32.808Z,64.23
2022-09-26T05:46:39.501Z,63.69
2022-09-26T05:48:47.922Z,64.31
2022-09-26T05:50:57.849Z,64.30
2022-09-26T05:53:02.443Z,63.54
2022-09-26T05:55:06.729Z,63.82
2022-09-26T05:57:28.914Z,61.88
2022-09-26T05:59:33.448Z,63.52
2022-09-26T06:01:59.265Z,65.16
2022-09-26T06:04:18.433Z,67.82
2022-09-26T06:06:45.100Z,68.78
2022-09-26T06:08:53.262Z,70.23
2022-09-26T06:11:01.662Z,70.67
2022-09-26T06:13:06.252Z,72.78
2022-09-26T06:15:17.244Z,75.46
2022-09-26T06:17:21.074Z,73.57
2022-09-26T06:19:24.737Z,72.18
2022-09-26T06:21:28.770Z,73.61
2022-09-26T06:23:47.733Z,73.60
2022-09-26T06:25:52.396Z,73.97
2022-09-26T06:27:59.992Z,76.17
2022-09-26T06:30:15.596Z,77.21
2022-09-26T06:32:19.312Z,77.31
2022-09-26T06:34:40.231Z,78.04
2022-09-26T06:37:04.068Z,77.61
2022-09-26T06:39:07.833Z,79.94
2022-09-26T06:41:15.958Z,77.06
2022-09-26T06:43:23.180Z,76.33
2022-09-26T06:45:47.038Z,77.47
2022-09-26T06:47:57.406Z,77.44
2022-09-26T06:50:12.289Z,79.30
2022-09-26T06:52:19.445Z,79.17
2022-09-26T06:54:22.932Z,79.02
2022-09-26T06:56:26.517Z,79.21
2022-09-26T06:58:30.051Z,80.07
2022-09-26T07:00:37.904Z,79.95
2022-09-26T07:02:56.736Z,79.43
2022-09-26T07:05:18.907Z,78.43
2022-09-26T07:07:30.392Z,78.62
2022-09-26T07:09:34.616Z,80.07
2022-09-26T07:12:13.611Z,79.88
2022-09-26T07:14:18.911Z,80.25
2022-09-26T07:16:37.445Z,79.97
2022-09-26T07:19:00.040Z,80.08
2022-09-26T07:21:24.797Z,81.76
2022-09-26T07:23:46.557Z,82.39
2022-09-26T07:25:51.373Z,81.53
2022-09-26T07:27:56.032Z,83.47
2022-09-26T07:30:10.094Z,82.71
2022-09-26T07:32:24.363Z,83.82
2022-09-26T07:34:49.096Z,82.92
2022-09-26T07:36:53.204Z,84.04
2022-09-26T07:38:58.249Z,84.67
2022-09-26T07:41:12.418Z,85.42
2022-09-26T07:43:20.233Z,84.01
2022-09-26T07:45:44.870Z,84.45
2022-09-26T07:48:06.906Z,84.78
2022-09-26T07:50:31.031Z,85.01
2022-09-26T07:52:41.449Z,84.58
2022-09-26T07:54:59.802Z,85.43
2022-09-26T07:57:26.105Z,86.64
2022-09-26T07:59:43.976Z,86.26
2022-09-26T08:02:06.770Z,86.76
2022-09-26T08:04:13.603Z,88.04
2022-09-26T08:06:21.724Z,88.02
2022-09-26T08:10:44.181Z,87.44
2022-09-26T08:13:02.886Z,87.24
2022-09-26T08:15:17.831Z,87.69
2022-09-26T08:17:22.084Z,89.53
2022-09-26T08:19:26.683Z,88.55
2022-09-26T08:21:33.468Z,87.81
2022-09-26T08:23:37.040Z,87.81
2022-09-26T08:26:00.196Z,89.69
2022-09-26T08:28:18.363Z,89.96
2022-09-26T08:30:25.853Z,89.38
2022-09-26T08:32:33.241Z,90.48
2022-09-26T08:34:37.551Z,93.31
2022-09-26T08:36:59.917Z,93.51
2022-09-26T08:39:23.863Z,93.77
2022-09-26T08:41:58.148Z,93.26
2022-09-26T08:44:47.534Z,93.75
2022-09-26T08:47:20.238Z,94.98
2022-09-26T08:50:12.699Z,94.00
2022-09-26T08:52:39.272Z,93.38
2022-09-26T08:54:46.253Z,93.62
2022-09-26T08:57:00.159Z,94.13
2022-09-26T08:59:08.269Z,93.65
2022-09-26T09:01:16.582Z,93.31
2022-09-26T09:03:53.227Z,92.64
2022-09-26T09:06:06.941Z,91.43
2022-09-26T09:08:33.088Z,91.91
2022-09-26T09:11:00.236Z,93.24
2022-09-26T09:13:19.801Z,94.07
2022-09-26T09:15:52.493Z,95.48
2022-09-26T09:18:31.455Z,96.14
2022-09-26T09:20:54.267Z,96.48
2022-09-26T09:23:16.160Z,96.37
2022-09-26T09:25:32.872Z,97.66
2022-09-26T09:27:52.751Z,97.46
2022-09-26T09:30:15.772Z,98.98
2022-09-26T09:32:55.851Z,97.95
2022-09-26T09:35:17.521Z,98.53
2022-09-26T09:37:44.128Z,98.34
2022-09-26T09:39:58.127Z,100.00
2022-09-26T09:42:31.666Z,100.00
2022-09-26T09:44:45.619Z,100.00
2022-09-26T09:46:51.863Z,100.00
2022-09-26T09:49:01.373Z,100.00
2022-09-26T09:51:06.446Z,100.00
2022-09-26T09:53:22.301Z,100.00
2022-09-26T09:55:41.502Z,100.00
2022-09-26T09:57:54.828Z,100.00
2022-09-26T10:00:02.297Z,100.00
2022-09-26T10:02:33.660Z,100.00
2022-09-26T10:04:47.488Z,100.00
2022-09-26T10:06:52.441Z,100.00
2022-09-26T10:08:58.981Z,100.00
2022-09-26T10:11:56.037Z,100.00
2022-09-26T10:14:51.347Z,100.00
2022-09-26T10:17:19.797Z,100.00
2022-09-26T10:19:46.111Z,100.00
2022-09-26T10:21:51.448Z,100.00
2022-09-26T10:23:55.150Z,100.00
2022-09-26T10:26:16.420Z,100.00
2022-09-26T10:28:43.082Z,100.00
2022-09-26T10:30:51.205Z,100.00
2022-09-26T10:33:02.883Z,100.00
2022-09-26T10:35:52.505Z,100.00
2022-09-26T10:38:10.413Z,100.00
2022-09-26T10:40:42.708Z,100.00
2022-09-26T10:42:49.315Z,100.00
2022-09-26T10:45:00.672Z,100.00
2022-09-26T10:47:27.833Z,100.00
2022-09-26T10:50:04.189Z,100.00
2022-09-26T10:52:36.418Z,100.00
2022-09-26T10:54:42.858Z,100.00
2022-09-26T10:56:48.755Z,98.82
2022-09-26T10:58:58.234Z,98.52
2022-09-26T11:01:02.641Z,97.19
2022-09-26T11:03:15.976Z,97.20
2022-09-26T11:05:58.203Z,95.33
2022-09-26T11:08:15.637Z,94.83
2022-09-26T11:10:35.281Z,94.83
2022-09-26T11:12:57.119Z,93.93
2022-09-26T11:15:02.037Z,94.85
2022-09-26T11:17:06.496Z,95.06
2022-09-26T11:19:15.719Z,96.09
2022-09-26T11:21:29.049Z,96.66
2022-09-26T11:23:53.383Z,96.71
2022-09-26T11:26:01.768Z,99.01
2022-09-26T11:28:08.310Z,99.33
2022-09-26T11:30:41.100Z,99.43
2022-09-26T11:32:46.671Z,100.00
2022-09-26T11:35:16.006Z,99.76
2022-09-26T11:37:32.862Z,100.00
2022-09-26T11:39:42.842Z,100.00
2022-09-26T11:41:56.431Z,100.00
2022-09-26T11:44:20.187Z,100.00
2022-09-26T11:46:42.091Z,100.00
2022-09-26T11:49:01.990Z,100.00
2022-09-26T11:51:42.976Z,100.00
2022-09-26T11:53:56.412Z,100.00
2022-09-26T11:56:17.148Z,99.34
2022-09-26T11:58:30.140Z,99.67
2022-09-26T12:00:39.641Z,100.00
2022-09-26T12:02:49.761Z,100.00
2022-09-26T12:05:03.222Z,100.00
2022-09-26T12:07:18.987Z,100.00
2022-09-26T12:09:33.126Z,99.10
2022-09-26T12:11:55.377Z,95.66
2022-09-26T12:14:03.370Z,94.70
2022-09-26T12:16:20.681Z,92.84
2022-09-26T12:18:36.688Z,91.52
2022-09-26T12:20:49.709Z,90.03
2022-09-26T12:23:00.003Z,89.28
2022-09-26T12:25:08.794Z,88.26
2022-09-26T12:27:38.488Z,87.20
2022-09-26T12:29:54.007Z,91.33
2022-09-26T12:31:57.414Z,87.89
2022-09-26T12:34:19.341Z,85.77
2022-09-26T12:36:41.453Z,84.98
2022-09-26T12:39:06.538Z,84.26
2022-09-26T12:41:15.233Z,84.78
2022-09-26T12:43:43.131Z,82.28
2022-09-26T12:45:53.177Z,82.04
2022-09-26T12:48:08.238Z,82.40
2022-09-26T12:50:30.321Z,81.62
2022-09-26T12:52:39.750Z,81.50
2022-09-26T12:54:51.570Z,79.91
2022-09-26T12:57:06.786Z,78.95
2022-09-26T12:59:18.560Z,77.98
2022-09-26T13:01:25.966Z,78.00
2022-09-26T13:03:38.502Z,75.21
2022-09-26T13:06:02.810Z,74.32
2022-09-26T13:08:20.697Z,72.95
2022-09-26T13:10:40.022Z,71.53
2022-09-26T13:12:46.755Z,70.67
2022-09-26T13:15:02.467Z,68.08
2022-09-26T13:17:15.874Z,66.89
2022-09-26T13:19:37.004Z,66.51
2022-09-26T13:21:45.968Z,67.07
2022-09-26T13:23:54.812Z,66.96
2022-09-26T13:26:05.468Z,67.00
2022-09-26T13:28:15.997Z,66.70
2022-09-26T13:30:23.243Z,66.58
2022-09-26T13:32:30.104Z,66.32
2022-09-26T13:34:48.726Z,66.15
2022-09-26T13:36:52.787Z,65.77
2022-09-26T13:39:07.966Z,64.92
2022-09-26T13:41:11.545Z,66.27
2022-09-26T13:43:35.224Z,65.58
2022-09-26T13:46:06.004Z,64.32
2022-09-26T13:48:13.842Z,64.13
2022-09-26T13:50:25.171Z,63.08
2022-09-26T13:52:31.814Z,62.78
2022-09-26T13:54:59.062Z,62.87
2022-09-26T13:57:23.101Z,62.73
2022-09-26T13:59:33.333Z,61.41
2022-09-26T14:01:37.522Z,60.89
2022-09-26T14:03:42.899Z,61.03
2022-09-26T14:05:53.482Z,60.36
2022-09-26T14:08:15.495Z,59.09
2022-09-26T14:10:37.845Z,57.99
2022-09-26T14:13:11.354Z,57.96
2022-09-26T14:15:23.921Z,57.33
2022-09-26T14:17:50.326Z,55.38
2022-09-26T14:19:55.669Z,53.96
2022-09-26T14:21:59.107Z,54.39
2022-09-26T14:24:21.707Z,53.63
2022-09-26T14:26:29.191Z,52.48
2022-09-26T14:28:36.693Z,51.59
2022-09-26T14:30:40.125Z,51.83
2022-09-26T14:32:48.068Z,52.70
2022-09-26T14:35:03.871Z,51.76
2022-09-26T14:37:25.193Z,50.96
2022-09-26T14:39:38.348Z,50.36
2022-09-26T14:41:43.087Z,51.44
2022-09-26T14:43:47.606Z,49.67
2022-09-26T14:46:01.888Z,48.13
2022-09-26T14:48:14.036Z,48.01
2022-09-26T14:50:21.406Z,46.98
2022-09-26T14:52:28.542Z,46.30
2022-09-26T14:54:40.818Z,47.78
2022-09-26T14:56:49.821Z,45.65
2022-09-26T14:58:54.131Z,44.04
2022-09-26T15:01:00.083Z,43.04
2022-09-26T15:03:06.641Z,42.30
2022-09-26T15:05:10.160Z,41.89
2022-09-26T15:07:17.170Z,38.71
2022-09-26T15:09:25.787Z,37.83
2022-09-26T15:11:45.489Z,37.29
2022-09-26T15:13:50.457Z,38.34
2022-09-26T15:15:57.745Z,37.28
2022-09-26T15:18:10.652Z,36.52
2022-09-26T15:20:18.017Z,36.33
2022-09-26T15:22:26.251Z,36.15
2022-09-26T15:24:31.624Z,37.32
2022-09-26T15:26:37.377Z,35.58
2022-09-26T15:28:41.379Z,36.12
2022-09-26T15:30:45.796Z,34.89
2022-09-26T15:32:50.154Z,35.53
2022-09-26T15:34:54.204Z,33.84
2022-09-26T15:36:58.299Z,35.81
2022-09-26T15:39:03.855Z,35.87
2022-09-26T15:41:07.437Z,33.92
2022-09-26T15:43:11.427Z,33.56
2022-09-26T15:45:19.886Z,33.73
2022-09-26T15:47:34.972Z,32.95
2022-09-26T15:49:40.771Z,32.63
2022-09-26T15:51:45.558Z,32.53
2022-09-26T15:54:17.881Z,32.68
2022-09-26T15:56:41.038Z,32.45
2022-09-26T15:58:45.118Z,31.02
2022-09-26T16:00:51.919Z,31.86
2022-09-26T16:02:55.705Z,30.60
2022-09-26T16:05:00.896Z,30.72
2022-09-26T16:07:04.457Z,29.82
2022-09-26T16:09:10.347Z,30.05
2022-09-26T16:11:13.913Z,29.07
2022-09-26T16:13:26.273Z,29.22
2022-09-26T16:15:33.419Z,29.49
2022-09-26T16:17:39.661Z,29.07
2022-09-26T16:20:05.053Z,28.73
2022-09-26T16:22:26.883Z,28.69
2022-09-26T16:24:35.640Z,28.27
2022-09-26T16:26:45.179Z,28.28
2022-09-26T16:28:54.086Z,28.22
2022-09-26T16:31:00.232Z,28.66
2022-09-26T16:33:03.964Z,28.29
2022-09-26T16:35:27.338Z,28.30
2022-09-26T16:37:35.781Z,28.34
2022-09-26T16:39:39.410Z,28.82
2022-09-26T16:42:01.289Z,28.00
2022-09-26T16:44:18.006Z,27.91
2022-09-26T16:46:27.277Z,27.78
2022-09-26T16:48:44.512Z,28.54
2022-09-26T16:50:50.608Z,28.47
2022-09-26T16:52:58.099Z,28.43
2022-09-26T16:55:03.447Z,27.58
2022-09-26T16:57:10.266Z,27.86
2022-09-26T16:59:33.560Z,27.81
2022-09-26T17:01:55.539Z,27.59
2022-09-26T17:04:00.390Z,27.03
2022-09-26T17:06:04.065Z,26.10
2022-09-26T17:08:10.365Z,27.23
2022-09-26T17:10:14.050Z,25.93
2022-09-26T17:12:23.271Z,25.91
2022-09-26T17:14:29.167Z,26.41
2022-09-26T17:16:35.214Z,26.01
2022-09-26T17:18:39.109Z,25.97
2022-09-26T17:20:45.649Z,25.98
2022-09-26T17:22:50.018Z,25.91
2022-09-26T17:24:54.259Z,26.62
2022-09-26T17:27:05.441Z,25.59
2022-09-26T17:29:16.365Z,25.99
2022-09-26T17:31:22.103Z,25.27
2022-09-26T17:33:29.359Z,26.05
2022-09-26T17:35:36.373Z,25.87
2022-09-26T17:37:40.436Z,26.22
2022-09-26T17:39:47.134Z,26.74
2022-09-26T17:41:52.313Z,25.62
2022-09-26T17:44:01.903Z,25.29
2022-09-26T17:46:06.265Z,25.28
2022-09-26T17:48:36.710Z,25.24
2022-09-26T17:50:41.020Z,25.26
2022-09-26T17:52:44.952Z,25.63
2022-09-26T17:54:48.776Z,26.17
2022-09-26T17:56:52.430Z,25.38
2022-09-26T17:58:57.299Z,25.27
2022-09-26T18:01:02.690Z,25.85
2022-09-26T18:03:08.980Z,26.67
2022-09-26T18:05:19.117Z,26.46
2022-09-26T18:07:23.430Z,25.20
2022-09-26T18:09:28.924Z,24.89
2022-09-26T18:11:35.847Z,25.63
2022-09-26T18:13:42.683Z,25.54
2022-09-26T18:15:46.705Z,25.64
2022-09-26T18:17:52.486Z,24.53
2022-09-26T18:19:56.366Z,24.18
2022-09-26T18:22:00.180Z,24.31
2022-09-26T18:24:07.748Z,26.15
2022-09-26T18:26:15.887Z,24.66
2022-09-26T18:28:21.578Z,24.87
2022-09-26T18:30:28.351Z,24.61
2022-09-26T18:32:33.793Z,25.04
2022-09-26T18:34:37.318Z,24.60
2022-09-26T18:36:40.841Z,23.89
2022-09-26T18:38:44.626Z,24.63
2022-09-26T18:40:55.973Z,24.42
2022-09-26T18:42:59.728Z,24.32
2022-09-26T18:45:07.718Z,24.18
2022-09-26T18:47:15.484Z,24.57
2022-09-26T18:49:19.603Z,24.24
2022-09-26T18:51:23.399Z,23.75
2022-09-26T18:53:30.893Z,24.30
2022-09-26T18:55:52.769Z,23.69
2022-09-26T18:58:15.182Z,24.30
2022-09-26T19:00:18.906Z,24.32
2022-09-26T19:02:24.772Z,23.75
2022-09-26T19:04:34.942Z,24.33
2022-09-26T19:06:40.683Z,23.96
2022-09-26T19:08:46.681Z,24.47
2022-09-26T19:10:50.341Z,23.37
2022-09-26T19:12:54.211Z,23.60
2022-09-26T19:14:58.033Z,22.93
2022-09-26T19:17:02.073Z,23.04
2022-09-26T19:19:05.786Z,22.63
2022-09-26T19:21:28.193Z,23.31
2022-09-26T19:23:34.083Z,23.09
2022-09-26T19:25:37.712Z,23.58
2022-09-26T19:27:49.878Z,23.51
2022-09-26T19:29:56.459Z,22.51
2022-09-26T19:32:00.688Z,22.54
2022-09-26T19:34:05.372Z,22.49
2022-09-26T19:36:11.275Z,22.37
2022-09-26T19:38:25.912Z,22.40
2022-09-26T19:40:29.987Z,22.90
2022-09-26T19:42:36.684Z,24.87
2022-09-26T19:44:40.554Z,22.70
2022-09-26T19:46:45.788Z,22.88
2022-09-26T19:48:49.648Z,22.01
2022-09-26T19:50:53.553Z,21.81
2022-09-26T19:53:02.577Z,22.52
2022-09-26T19:55:13.230Z,22.98
2022-09-26T19:57:17.982Z,23.07
2022-09-26T19:59:26.627Z,23.12
2022-09-26T20:01:31.427Z,22.54
2022-09-26T20:03:43.111Z,21.65
2022-09-26T20:05:47.543Z,22.13
2022-09-26T20:07:54.760Z,22.92
2022-09-26T20:09:59.993Z,21.80
2022-09-26T20:12:04.561Z,21.46
2022-09-26T20:14:26.441Z,21.66
2022-09-26T20:16:32.863Z,20.94
2022-09-26T20:18:36.609Z,20.96
2022-09-26T20:20:40.756Z,20.49
2022-09-26T20:22:45.033Z,21.65
2022-09-26T20:24:50.184Z,20.92
2022-09-26T20:26:54.240Z,21.34
2022-09-26T20:28:58.559Z,20.43
2022-09-26T20:31:02.210Z,20.35
2022-09-26T20:33:05.870Z,21.04
2022-09-26T20:35:11.732Z,20.37
2022-09-26T20:37:15.955Z,19.84
2022-09-26T20:39:23.329Z,19.90
2022-09-26T20:41:33.663Z,20.57
2022-09-26T20:43:39.775Z,19.86
2022-09-26T20:45:45.059Z,20.02
2022-09-26T20:47:48.655Z,20.37
2022-09-26T20:49:54.935Z,20.07
2022-09-26T20:51:59.926Z,20.39
2022-09-26T20:54:04.007Z,20.84
2022-09-26T20:56:11.155Z,20.69
2022-09-26T20:58:15.061Z,20.76
2022-09-26T21:00:20.632Z,20.35
2022-09-26T21:02:24.549Z,20.18
2022-09-26T21:04:32.172Z,20.35
2022-09-26T21:06:36.373Z,19.92
2022-09-26T21:08:42.702Z,20.03
2022-09-26T21:10:46.696Z,19.50
2022-09-26T21:12:50.627Z,19.98
2022-09-26T21:14:54.143Z,19.82
2022-09-26T21:16:57.871Z,19.68
2022-09-26T21:19:01.881Z,19.76
2022-09-26T21:21:07.415Z,19.58
2022-09-26T21:23:30.472Z,19.15
2022-09-26T21:25:35.610Z,19.40
2022-09-26T21:27:39.438Z,20.39
2022-09-26T21:29:45.511Z,19.26
2022-09-26T21:31:51.315Z,19.36
2022-09-26T21:33:58.656Z,19.23
2022-09-26T21:36:02.486Z,19.15
2022-09-26T21:38:06.054Z,19.16
2022-09-26T21:40:10.580Z,18.97
2022-09-26T21:42:14.404Z,19.21
2022-09-26T21:44:20.751Z,19.02
2022-09-26T21:46:28.057Z,19.38
2022-09-26T21:48:32.044Z,19.44
2022-09-26T21:50:35.869Z,19.40
2022-09-26T21:52:47.015Z,19.48
2022-09-26T21:54:51.388Z,19.09
2022-09-26T21:57:12.187Z,19.18
2022-09-26T21:59:16.076Z,18.81
2022-09-26T22:01:20.366Z,19.06
2022-09-26T22:03:26.880Z,18.94
2022-09-26T22:05:30.774Z,19.17
2022-09-26T22:07:34.307Z,19.34
2022-09-26T22:09:38.248Z,19.23
2022-09-26T22:11:42.914Z,19.31
2022-09-26T22:13:49.845Z,19.00
2022-09-26T22:15:53.487Z,19.04
2022-09-26T22:17:57.474Z,18.73
2022-09-26T22:20:01.246Z,19.00
2022-09-26T22:22:06.084Z,18.29
2022-09-26T22:24:11.240Z,18.61
2022-09-26T22:26:15.351Z,18.43
2022-09-26T22:28:19.718Z,18.73
2022-09-26T22:30:24.241Z,18.29
2022-09-26T22:32:30.612Z,18.81
2022-09-26T22:34:34.307Z,18.08
2022-09-26T22:36:38.239Z,18.54
2022-09-26T22:38:41.767Z,18.53
2022-09-26T22:40:45.863Z,18.78
2022-09-26T22:42:51.977Z,18.56
2022-09-26T22:44:55.741Z,18.32
2022-09-26T22:46:59.461Z,18.55
2022-09-26T22:49:03.821Z,18.55
2022-09-26T22:51:07.800Z,18.49
2022-09-26T22:53:11.746Z,18.49
2022-09-26T22:55:15.336Z,18.47
2022-09-26T22:57:19.576Z,18.69
2022-09-26T22:59:23.329Z,18.69
2022-09-26T23:01:30.049Z,18.74
2022-09-26T23:03:34.242Z,19.40
2022-09-26T23:05:37.946Z,20.03
2022-09-26T23:07:42.468Z,20.01
2022-09-26T23:09:46.698Z,20.35
2022-09-26T23:11:51.135Z,20.68
2022-09-26T23:13:55.057Z,20.73
2022-09-26T23:16:04.253Z,20.96
2022-09-26T23:18:08.150Z,21.22
2022-09-26T23:20:12.355Z,21.26
2022-09-26T23:22:16.486Z,21.08
2022-09-26T23:24:20.471Z,21.45
2022-09-26T23:26:28.228Z,21.26
2022-09-26T23:28:33.616Z,21.63
2022-09-26T23:30:40.644Z,21.37
2022-09-26T23:32:46.204Z,21.76
2022-09-26T23:34:52.182Z,21.79
2022-09-26T23:36:56.556Z,22.07
2022-09-26T23:39:00.433Z,22.23
2022-09-26T23:41:04.092Z,22.46
2022-09-26T23:43:07.956Z,22.17
2022-09-26T23:45:12.690Z,22.39
2022-09-26T23:47:17.341Z,22.10
2022-09-26T23:49:20.995Z,22.19
2022-09-26T23:51:24.773Z,22.15
2022-09-26T23:53:28.445Z,22.17
2022-09-26T23:55:32.483Z,22.27
2022-09-26T23:57:37.258Z,22.48
2022-09-26T23:59:41.300Z,22.69
